ΕΜΥ, Εθνική Μετεωρολογική Υπηρεσία - Δελτία Καιρού, Προγνώσεις

ΑΕΡΟΝΑΥΤΙΛΙΑ

GREEK AIRPORTS CODES

LGLR 151450Z 00000KT 9999 FEW030 SCT080 16/12 Q1021 RMK SCT180=

EUROPEAN AIRPORTS CODES

LFPO 151500Z 21008KT 190V250 9999 FEW035 SCT076 BKN220 11/06Q1006 NOSIG=